createdAt,value
2018-11-23T00:02:30.612Z,26.20
2018-11-23T00:08:34.055Z,24.83
2018-11-23T00:14:37.398Z,25.07
2018-11-23T00:20:40.932Z,23.83
2018-11-23T00:26:44.634Z,24.47
2018-11-23T00:35:25.830Z,23.73
2018-11-23T00:41:29.187Z,23.57
2018-11-23T00:47:32.637Z,23.60
2018-11-23T00:53:36.155Z,23.77
2018-11-23T00:59:39.568Z,24.70
2018-11-23T01:05:43.072Z,25.13
2018-11-23T01:11:46.541Z,24.90
2018-11-23T01:17:49.936Z,24.27
2018-11-23T01:23:53.954Z,24.00
2018-11-23T01:29:57.265Z,23.80
2018-11-23T01:36:00.732Z,24.70
2018-11-23T01:42:04.760Z,23.47
2018-11-23T01:48:08.213Z,24.27
2018-11-23T01:56:50.744Z,23.83
2018-11-23T02:02:54.877Z,24.00
2018-11-23T02:08:58.112Z,23.40
2018-11-23T02:15:01.517Z,25.20
2018-11-23T02:21:05.539Z,24.10
2018-11-23T02:27:08.996Z,23.23
2018-11-23T02:33:12.263Z,24.53
2018-11-23T02:39:15.549Z,25.20
2018-11-23T02:45:20.358Z,24.67
2018-11-23T02:51:23.637Z,23.47
2018-11-23T02:57:27.032Z,24.23
2018-11-23T03:03:30.424Z,23.67
2018-11-23T03:09:33.764Z,27.07
2018-11-23T03:15:37.152Z,24.03
2018-11-23T03:21:41.454Z,22.13
2018-11-23T03:27:45.057Z,22.23
2018-11-23T03:33:48.352Z,22.63
2018-11-23T03:39:51.698Z,23.70
2018-11-23T03:45:55.108Z,23.57
2018-11-23T03:51:58.392Z,21.40
2018-11-23T03:58:01.982Z,22.23
2018-11-23T04:04:05.983Z,23.60
2018-11-23T04:10:11.166Z,22.80
2018-11-23T04:16:14.447Z,22.40
2018-11-23T04:22:17.781Z,22.30
2018-11-23T04:28:21.284Z,22.43
2018-11-23T04:34:25.343Z,22.67
2018-11-23T04:40:28.796Z,23.87
2018-11-23T04:46:32.134Z,22.67
2018-11-23T04:52:35.694Z,23.63
2018-11-23T04:58:39.114Z,23.00
2018-11-23T05:04:42.580Z,23.50
2018-11-23T05:10:46.092Z,23.93
2018-11-23T05:16:49.456Z,22.63
2018-11-23T05:22:53.018Z,24.07
2018-11-23T05:28:56.397Z,22.80
2018-11-23T05:35:00.608Z,24.10
2018-11-23T05:41:04.119Z,23.33
2018-11-23T05:47:07.537Z,24.70
2018-11-23T05:53:10.965Z,22.53
2018-11-23T05:59:14.307Z,21.97
2018-11-23T06:05:17.717Z,21.73
2018-11-23T06:11:21.119Z,23.33
2018-11-23T06:17:24.473Z,23.33
2018-11-23T06:23:28.009Z,25.80
2018-11-23T06:29:31.677Z,24.57
2018-11-23T06:35:35.105Z,24.50
2018-11-23T06:41:38.509Z,27.47
2018-11-23T06:47:41.820Z,22.93
2018-11-23T06:53:45.191Z,21.20
2018-11-23T06:59:48.571Z,23.10
2018-11-23T07:05:52.124Z,22.33
2018-11-23T07:11:55.519Z,24.33
2018-11-23T07:17:58.875Z,22.53
2018-11-23T07:24:02.425Z,22.40
2018-11-23T07:30:15.639Z,21.80
2018-11-23T07:36:19.032Z,22.00
2018-11-23T07:42:23.833Z,22.50
2018-11-23T07:48:27.224Z,22.80
2018-11-23T07:54:30.780Z,22.77
2018-11-23T08:00:34.207Z,22.47
2018-11-23T08:06:37.590Z,24.67
2018-11-23T08:12:42.547Z,24.57
2018-11-23T08:18:46.201Z,25.97
2018-11-23T08:24:49.443Z,25.53
2018-11-23T08:30:52.912Z,25.00
2018-11-23T08:36:56.369Z,29.83
2018-11-23T08:42:59.874Z,24.30
2018-11-23T08:49:07.456Z,23.57
2018-11-23T08:55:11.805Z,28.87
2018-11-23T09:01:15.291Z,25.83
2018-11-23T09:07:18.686Z,24.80
2018-11-23T09:13:22.366Z,28.63
2018-11-23T09:19:25.836Z,28.63
2018-11-23T09:25:29.564Z,27.87
2018-11-23T09:31:33.147Z,28.23
2018-11-23T09:37:37.706Z,30.63
2018-11-23T09:43:41.737Z,28.73
2018-11-23T09:49:45.380Z,27.43
2018-11-23T09:55:48.798Z,31.00
2018-11-23T10:01:52.448Z,28.37
2018-11-23T10:07:59.520Z,29.67
2018-11-23T10:14:06.633Z,28.40
2018-11-23T10:20:13.471Z,28.40
2018-11-23T10:26:16.732Z,26.47
2018-11-23T10:32:20.077Z,25.17
2018-11-23T10:38:23.656Z,40.53
2018-11-23T10:44:27.248Z,26.00
2018-11-23T10:50:32.222Z,33.83
2018-11-23T10:56:36.475Z,24.93
2018-11-23T11:02:43.702Z,24.47
2018-11-23T11:08:47.358Z,23.80
2018-11-23T11:14:51.948Z,28.63
2018-11-23T11:20:55.699Z,27.27
2018-11-23T11:26:59.208Z,28.63
2018-11-23T11:33:02.829Z,30.60
2018-11-23T11:39:11.264Z,30.70
2018-11-23T11:45:16.009Z,26.60
2018-11-23T11:53:55.347Z,26.80
2018-11-23T11:59:58.940Z,27.27
2018-11-23T12:06:02.452Z,29.53
2018-11-23T12:12:06.677Z,27.30
2018-11-23T12:20:49.049Z,26.90
2018-11-23T12:26:52.767Z,29.10
2018-11-23T12:32:56.185Z,30.17
2018-11-23T12:38:59.605Z,30.63
2018-11-23T12:45:03.329Z,29.90
2018-11-23T12:51:08.340Z,28.20
2018-11-23T12:57:11.853Z,27.93
2018-11-23T13:05:53.862Z,27.10
2018-11-23T13:11:57.885Z,28.33
2018-11-23T13:18:01.830Z,28.43
2018-11-23T13:24:06.651Z,27.20
2018-11-23T13:30:15.693Z,27.40
2018-11-23T13:36:19.340Z,27.83
2018-11-23T13:42:22.683Z,31.20
2018-11-23T13:48:27.367Z,29.13
2018-11-23T13:54:31.216Z,28.53
2018-11-23T14:00:34.721Z,29.20
2018-11-23T14:06:38.025Z,28.17
2018-11-23T14:12:42.104Z,27.93
2018-11-23T14:18:45.375Z,27.33
2018-11-23T14:24:49.720Z,29.37
2018-11-23T14:30:53.054Z,28.50
2018-11-23T14:36:58.512Z,29.70
2018-11-23T14:43:01.892Z,29.93
2018-11-23T14:49:05.955Z,29.67
2018-11-23T14:55:09.381Z,28.27
2018-11-23T15:01:12.783Z,28.70
2018-11-23T15:07:16.156Z,29.63
2018-11-23T15:13:19.710Z,30.17
2018-11-23T15:19:23.484Z,29.37
2018-11-23T15:25:26.793Z,31.10
2018-11-23T15:31:30.112Z,30.20
2018-11-23T15:37:33.547Z,29.70
2018-11-23T15:43:36.803Z,30.07
2018-11-23T15:52:19.322Z,29.43
2018-11-23T15:58:22.780Z,33.00
2018-11-23T16:04:26.401Z,31.03
2018-11-23T16:10:31.262Z,30.20
2018-11-23T16:16:34.721Z,30.60
2018-11-23T16:22:38.091Z,32.00
2018-11-23T16:28:41.576Z,31.93
2018-11-23T16:34:45.219Z,30.60
2018-11-23T16:40:59.076Z,31.53
2018-11-23T16:47:02.497Z,37.50
2018-11-23T16:53:06.604Z,48.00
2018-11-23T16:59:10.015Z,37.33
2018-11-23T17:05:14.783Z,32.80
2018-11-23T17:11:18.212Z,36.58
2018-11-23T17:17:22.108Z,28.93
2018-11-23T17:23:30.400Z,29.03
2018-11-23T17:29:34.099Z,28.50
2018-11-23T17:35:37.334Z,28.07
2018-11-23T17:41:40.767Z,26.07
2018-11-23T17:47:44.290Z,28.27
2018-11-23T17:53:47.629Z,34.27
2018-11-23T17:59:51.099Z,26.70
2018-11-23T18:05:55.650Z,27.03
2018-11-23T18:11:59.103Z,27.60
2018-11-23T18:19:42.880Z,27.70
2018-11-23T18:25:46.767Z,26.70
2018-11-23T18:31:50.343Z,27.20
2018-11-23T18:37:53.644Z,25.13
2018-11-23T18:43:57.236Z,27.07
2018-11-23T18:50:00.912Z,26.27
2018-11-23T18:56:04.553Z,28.30
2018-11-23T19:02:07.847Z,31.17
2018-11-23T19:08:12.078Z,29.83
2018-11-23T19:14:15.513Z,27.03
2018-11-23T19:20:21.636Z,26.70
2018-11-23T19:26:25.232Z,27.93
2018-11-23T19:32:28.647Z,29.03
2018-11-23T19:38:31.963Z,24.50
2018-11-23T19:44:35.606Z,27.50
2018-11-23T19:50:39.004Z,24.53
2018-11-23T19:56:43.152Z,24.30
2018-11-23T20:02:46.611Z,24.93
2018-11-23T20:08:50.173Z,25.23
2018-11-23T20:14:53.908Z,26.10
2018-11-23T20:20:57.367Z,26.03
2018-11-23T20:27:00.764Z,27.80
2018-11-23T20:33:04.557Z,27.33
2018-11-23T20:39:09.669Z,28.80
2018-11-23T20:45:13.586Z,26.93
2018-11-23T20:51:17.201Z,23.63
2018-11-23T20:57:20.862Z,24.87
2018-11-23T21:03:24.512Z,25.30
2018-11-23T21:09:31.167Z,25.27
2018-11-23T21:21:04.766Z,24.37
2018-11-23T21:27:08.239Z,24.33
2018-11-23T21:33:12.510Z,27.03
2018-11-23T21:39:16.558Z,22.90
2018-11-23T21:45:20.528Z,24.63
2018-11-23T21:51:23.904Z,25.10
2018-11-23T21:57:27.220Z,25.27
2018-11-23T22:03:30.529Z,26.30
2018-11-23T22:09:33.999Z,27.10
2018-11-23T22:15:38.638Z,27.47
2018-11-23T22:21:42.658Z,27.33
2018-11-23T22:27:46.129Z,26.60
2018-11-23T22:33:49.810Z,28.23
2018-11-23T22:39:53.349Z,26.07
2018-11-23T22:45:57.142Z,25.73
2018-11-23T22:52:00.581Z,26.80
2018-11-23T22:58:04.079Z,29.43
2018-11-23T23:04:10.704Z,29.47
2018-11-23T23:10:14.711Z,29.30
2018-11-23T23:16:18.255Z,26.67
2018-11-23T23:22:22.200Z,32.00
2018-11-23T23:28:26.532Z,31.30
2018-11-23T23:34:30.078Z,27.23
2018-11-23T23:40:34.968Z,29.87
2018-11-23T23:46:39.551Z,27.07
2018-11-23T23:55:28.808Z,27.97
